sensor_id;sensor_type;location;lat;lon;timestamp;pressure;altitude;pressure_sealevel;temperature
20092;BMP180;10205;49.678;6.560;2023-04-24T00:02:03;98720.00;;;16.20
20092;BMP180;10205;49.678;6.560;2023-04-24T00:04:32;98718.00;;;16.20
20092;BMP180;10205;49.678;6.560;2023-04-24T00:06:59;98705.00;;;16.20
20092;BMP180;10205;49.678;6.560;2023-04-24T00:09:28;98692.00;;;16.20
20092;BMP180;10205;49.678;6.560;2023-04-24T00:11:55;98709.00;;;16.20
20092;BMP180;10205;49.678;6.560;2023-04-24T00:14:22;98698.00;;;16.20
20092;BMP180;10205;49.678;6.560;2023-04-24T00:16:49;98716.00;;;16.10
20092;BMP180;10205;49.678;6.560;2023-04-24T00:19:17;98716.00;;;16.10
20092;BMP180;10205;49.678;6.560;2023-04-24T00:21:47;98726.00;;;16.10
20092;BMP180;10205;49.678;6.560;2023-04-24T00:24:15;98727.00;;;16.10
20092;BMP180;10205;49.678;6.560;2023-04-24T00:26:44;98718.00;;;16.10
20092;BMP180;10205;49.678;6.560;2023-04-24T00:29:11;98712.00;;;16.00
20092;BMP180;10205;49.678;6.560;2023-04-24T00:31:39;98727.00;;;16.10
20092;BMP180;10205;49.678;6.560;2023-04-24T00:34:06;98725.00;;;16.00
20092;BMP180;10205;49.678;6.560;2023-04-24T00:36:33;98724.00;;;16.00
20092;BMP180;10205;49.678;6.560;2023-04-24T00:39:00;98723.00;;;16.00
20092;BMP180;10205;49.678;6.560;2023-04-24T00:41:28;98724.00;;;16.00
20092;BMP180;10205;49.678;6.560;2023-04-24T00:43:56;98721.00;;;16.00
20092;BMP180;10205;49.678;6.560;2023-04-24T00:46:24;98726.00;;;16.00
20092;BMP180;10205;49.678;6.560;2023-04-24T00:48:51;98728.00;;;15.90
20092;BMP180;10205;49.678;6.560;2023-04-24T00:51:18;98732.00;;;15.90
20092;BMP180;10205;49.678;6.560;2023-04-24T00:53:48;98722.00;;;15.90
20092;BMP180;10205;49.678;6.560;2023-04-24T00:56:15;98732.00;;;15.90
20092;BMP180;10205;49.678;6.560;2023-04-24T00:58:43;98739.00;;;15.80
20092;BMP180;10205;49.678;6.560;2023-04-24T01:01:11;98737.00;;;15.80
20092;BMP180;10205;49.678;6.560;2023-04-24T01:03:40;98731.00;;;15.80
20092;BMP180;10205;49.678;6.560;2023-04-24T01:06:09;98729.00;;;15.80
20092;BMP180;10205;49.678;6.560;2023-04-24T01:08:38;98735.00;;;15.80
20092;BMP180;10205;49.678;6.560;2023-04-24T01:11:06;98739.00;;;15.80
20092;BMP180;10205;49.678;6.560;2023-04-24T01:13:34;98723.00;;;15.80
20092;BMP180;10205;49.678;6.560;2023-04-24T01:16:02;98718.00;;;15.80
20092;BMP180;10205;49.678;6.560;2023-04-24T01:18:34;98739.00;;;15.70
20092;BMP180;10205;49.678;6.560;2023-04-24T01:21:05;98743.00;;;15.70
20092;BMP180;10205;49.678;6.560;2023-04-24T01:23:35;98741.00;;;15.70
20092;BMP180;10205;49.678;6.560;2023-04-24T01:26:02;98736.00;;;15.60
20092;BMP180;10205;49.678;6.560;2023-04-24T01:28:29;98734.00;;;15.60
20092;BMP180;10205;49.678;6.560;2023-04-24T01:30:59;98733.00;;;15.60
20092;BMP180;10205;49.678;6.560;2023-04-24T01:33:26;98728.00;;;15.60
20092;BMP180;10205;49.678;6.560;2023-04-24T01:35:54;98733.00;;;15.60
20092;BMP180;10205;49.678;6.560;2023-04-24T01:38:21;98733.00;;;15.60
20092;BMP180;10205;49.678;6.560;2023-04-24T01:40:50;98737.00;;;15.50
20092;BMP180;10205;49.678;6.560;2023-04-24T01:43:18;98742.00;;;15.50
20092;BMP180;10205;49.678;6.560;2023-04-24T01:45:45;98744.00;;;15.50
20092;BMP180;10205;49.678;6.560;2023-04-24T01:48:13;98750.00;;;15.50
20092;BMP180;10205;49.678;6.560;2023-04-24T01:50:41;98771.00;;;15.50
20092;BMP180;10205;49.678;6.560;2023-04-24T01:53:08;98772.00;;;15.50
20092;BMP180;10205;49.678;6.560;2023-04-24T01:55:35;98774.00;;;15.50
20092;BMP180;10205;49.678;6.560;2023-04-24T01:58:04;98783.00;;;15.50
20092;BMP180;10205;49.678;6.560;2023-04-24T02:00:31;98781.00;;;15.40
20092;BMP180;10205;49.678;6.560;2023-04-24T02:02:58;98781.00;;;15.40
20092;BMP180;10205;49.678;6.560;2023-04-24T02:05:27;98793.00;;;15.40
20092;BMP180;10205;49.678;6.560;2023-04-24T02:07:54;98798.00;;;15.40
20092;BMP180;10205;49.678;6.560;2023-04-24T02:10:22;98797.00;;;15.30
20092;BMP180;10205;49.678;6.560;2023-04-24T02:12:51;98785.00;;;15.30
20092;BMP180;10205;49.678;6.560;2023-04-24T02:15:19;98804.00;;;15.30
20092;BMP180;10205;49.678;6.560;2023-04-24T02:17:46;98795.00;;;15.30
20092;BMP180;10205;49.678;6.560;2023-04-24T02:20:14;98799.00;;;15.30
20092;BMP180;10205;49.678;6.560;2023-04-24T02:22:41;98799.00;;;15.30
20092;BMP180;10205;49.678;6.560;2023-04-24T02:25:08;98771.00;;;15.30
20092;BMP180;10205;49.678;6.560;2023-04-24T02:27:36;98785.00;;;15.30
20092;BMP180;10205;49.678;6.560;2023-04-24T02:30:03;98798.00;;;15.20
20092;BMP180;10205;49.678;6.560;2023-04-24T02:32:32;98797.00;;;15.20
20092;BMP180;10205;49.678;6.560;2023-04-24T02:34:59;98796.00;;;15.20
20092;BMP180;10205;49.678;6.560;2023-04-24T02:37:27;98794.00;;;15.10
20092;BMP180;10205;49.678;6.560;2023-04-24T02:39:54;98797.00;;;15.10
20092;BMP180;10205;49.678;6.560;2023-04-24T02:42:21;98796.00;;;15.10
20092;BMP180;10205;49.678;6.560;2023-04-24T02:44:48;98807.00;;;15.10
20092;BMP180;10205;49.678;6.560;2023-04-24T02:47:17;98808.00;;;15.00
20092;BMP180;10205;49.678;6.560;2023-04-24T02:49:45;98830.00;;;15.00
20092;BMP180;10205;49.678;6.560;2023-04-24T02:52:12;98829.00;;;15.00
20092;BMP180;10205;49.678;6.560;2023-04-24T02:54:40;98818.00;;;15.00
20092;BMP180;10205;49.678;6.560;2023-04-24T02:57:07;98835.00;;;14.90
20092;BMP180;10205;49.678;6.560;2023-04-24T02:59:34;98830.00;;;14.90
20092;BMP180;10205;49.678;6.560;2023-04-24T03:02:01;98836.00;;;14.90
20092;BMP180;10205;49.678;6.560;2023-04-24T03:04:28;98832.00;;;14.90
20092;BMP180;10205;49.678;6.560;2023-04-24T03:06:57;98832.00;;;14.90
20092;BMP180;10205;49.678;6.560;2023-04-24T03:09:26;98837.00;;;14.80
20092;BMP180;10205;49.678;6.560;2023-04-24T03:11:53;98840.00;;;14.80
20092;BMP180;10205;49.678;6.560;2023-04-24T03:14:21;98835.00;;;14.80
20092;BMP180;10205;49.678;6.560;2023-04-24T03:16:48;98840.00;;;14.80
20092;BMP180;10205;49.678;6.560;2023-04-24T03:19:15;98842.00;;;14.80
20092;BMP180;10205;49.678;6.560;2023-04-24T03:21:43;98847.00;;;14.70
20092;BMP180;10205;49.678;6.560;2023-04-24T03:24:12;98841.00;;;14.70
20092;BMP180;10205;49.678;6.560;2023-04-24T03:26:39;98834.00;;;14.70
20092;BMP180;10205;49.678;6.560;2023-04-24T03:29:06;98843.00;;;14.70
20092;BMP180;10205;49.678;6.560;2023-04-24T03:31:33;98859.00;;;14.70
20092;BMP180;10205;49.678;6.560;2023-04-24T03:34:00;98848.00;;;14.60
20092;BMP180;10205;49.678;6.560;2023-04-24T03:36:27;98860.00;;;14.60
20092;BMP180;10205;49.678;6.560;2023-04-24T03:38:54;98846.00;;;14.60
20092;BMP180;10205;49.678;6.560;2023-04-24T03:41:23;98846.00;;;14.60
20092;BMP180;10205;49.678;6.560;2023-04-24T03:43:50;98843.00;;;14.50
20092;BMP180;10205;49.678;6.560;2023-04-24T03:46:20;98846.00;;;14.50
20092;BMP180;10205;49.678;6.560;2023-04-24T03:48:47;98844.00;;;14.50
20092;BMP180;10205;49.678;6.560;2023-04-24T03:51:14;98850.00;;;14.50
20092;BMP180;10205;49.678;6.560;2023-04-24T03:53:41;98846.00;;;14.50
20092;BMP180;10205;49.678;6.560;2023-04-24T03:56:09;98855.00;;;14.50
20092;BMP180;10205;49.678;6.560;2023-04-24T03:58:37;98847.00;;;14.40
20092;BMP180;10205;49.678;6.560;2023-04-24T04:01:04;98848.00;;;14.40
20092;BMP180;10205;49.678;6.560;2023-04-24T04:03:32;98855.00;;;14.40
20092;BMP180;10205;49.678;6.560;2023-04-24T04:05:59;98852.00;;;14.40
20092;BMP180;10205;49.678;6.560;2023-04-24T04:08:26;98848.00;;;14.30
20092;BMP180;10205;49.678;6.560;2023-04-24T04:10:53;98848.00;;;14.30
20092;BMP180;10205;49.678;6.560;2023-04-24T04:13:20;98847.00;;;14.30
20092;BMP180;10205;49.678;6.560;2023-04-24T04:15:49;98851.00;;;14.30
20092;BMP180;10205;49.678;6.560;2023-04-24T04:18:16;98848.00;;;14.30
20092;BMP180;10205;49.678;6.560;2023-04-24T04:20:43;98855.00;;;14.20
20092;BMP180;10205;49.678;6.560;2023-04-24T04:23:10;98861.00;;;14.20
20092;BMP180;10205;49.678;6.560;2023-04-24T04:25:37;98861.00;;;14.20
20092;BMP180;10205;49.678;6.560;2023-04-24T04:28:04;98868.00;;;14.20
20092;BMP180;10205;49.678;6.560;2023-04-24T04:30:32;98875.00;;;14.20
20092;BMP180;10205;49.678;6.560;2023-04-24T04:33:00;98881.00;;;14.20
20092;BMP180;10205;49.678;6.560;2023-04-24T04:35:28;98878.00;;;14.10
20092;BMP180;10205;49.678;6.560;2023-04-24T04:37:55;98887.00;;;14.10
20092;BMP180;10205;49.678;6.560;2023-04-24T04:40:24;98890.00;;;14.10
20092;BMP180;10205;49.678;6.560;2023-04-24T04:42:52;98896.00;;;14.10
20092;BMP180;10205;49.678;6.560;2023-04-24T04:45:19;98896.00;;;14.10
20092;BMP180;10205;49.678;6.560;2023-04-24T04:47:47;98892.00;;;14.00
20092;BMP180;10205;49.678;6.560;2023-04-24T04:50:16;98897.00;;;14.00
20092;BMP180;10205;49.678;6.560;2023-04-24T04:52:45;98898.00;;;14.00
20092;BMP180;10205;49.678;6.560;2023-04-24T04:55:12;98905.00;;;14.00
20092;BMP180;10205;49.678;6.560;2023-04-24T04:57:40;98912.00;;;14.00
20092;BMP180;10205;49.678;6.560;2023-04-24T05:00:09;98930.00;;;14.00
20092;BMP180;10205;49.678;6.560;2023-04-24T05:02:37;98916.00;;;14.00
20092;BMP180;10205;49.678;6.560;2023-04-24T05:05:05;98939.00;;;14.00
20092;BMP180;10205;49.678;6.560;2023-04-24T05:07:34;98932.00;;;13.90
20092;BMP180;10205;49.678;6.560;2023-04-24T05:10:02;98941.00;;;13.90
20092;BMP180;10205;49.678;6.560;2023-04-24T05:12:30;98936.00;;;13.90
20092;BMP180;10205;49.678;6.560;2023-04-24T05:14:59;98940.00;;;13.90
20092;BMP180;10205;49.678;6.560;2023-04-24T05:17:27;98938.00;;;13.90
20092;BMP180;10205;49.678;6.560;2023-04-24T05:19:54;98943.00;;;13.90
20092;BMP180;10205;49.678;6.560;2023-04-24T05:22:21;98938.00;;;13.90
20092;BMP180;10205;49.678;6.560;2023-04-24T05:24:51;98936.00;;;13.90
20092;BMP180;10205;49.678;6.560;2023-04-24T05:27:19;98937.00;;;13.90
20092;BMP180;10205;49.678;6.560;2023-04-24T05:29:47;98952.00;;;13.90
20092;BMP180;10205;49.678;6.560;2023-04-24T05:32:14;98950.00;;;13.90
20092;BMP180;10205;49.678;6.560;2023-04-24T05:34:41;98951.00;;;13.90
20092;BMP180;10205;49.678;6.560;2023-04-24T05:37:08;98951.00;;;13.90
20092;BMP180;10205;49.678;6.560;2023-04-24T05:39:35;98958.00;;;13.90
20092;BMP180;10205;49.678;6.560;2023-04-24T05:42:05;98949.00;;;13.90
20092;BMP180;10205;49.678;6.560;2023-04-24T05:44:32;98952.00;;;13.90
20092;BMP180;10205;49.678;6.560;2023-04-24T05:46:59;98947.00;;;13.90
20092;BMP180;10205;49.678;6.560;2023-04-24T05:49:26;98955.00;;;13.90
20092;BMP180;10205;49.678;6.560;2023-04-24T05:51:53;98965.00;;;13.90
20092;BMP180;10205;49.678;6.560;2023-04-24T05:54:21;98964.00;;;13.80
20092;BMP180;10205;49.678;6.560;2023-04-24T05:56:49;98988.00;;;13.80
20092;BMP180;10205;49.678;6.560;2023-04-24T05:59:18;98990.00;;;13.80
20092;BMP180;10205;49.678;6.560;2023-04-24T06:01:46;98982.00;;;13.80
20092;BMP180;10205;49.678;6.560;2023-04-24T06:04:13;98987.00;;;13.80
20092;BMP180;10205;49.678;6.560;2023-04-24T06:06:43;99000.00;;;13.80
20092;BMP180;10205;49.678;6.560;2023-04-24T06:09:10;98999.00;;;13.80
20092;BMP180;10205;49.678;6.560;2023-04-24T06:11:37;99004.00;;;13.80
20092;BMP180;10205;49.678;6.560;2023-04-24T06:14:04;99009.00;;;13.80
20092;BMP180;10205;49.678;6.560;2023-04-24T06:16:33;99010.00;;;13.80
20092;BMP180;10205;49.678;6.560;2023-04-24T06:19:00;99007.00;;;13.70
20092;BMP180;10205;49.678;6.560;2023-04-24T06:21:27;99009.00;;;13.70
20092;BMP180;10205;49.678;6.560;2023-04-24T06:23:54;99009.00;;;13.70
20092;BMP180;10205;49.678;6.560;2023-04-24T06:26:22;99015.00;;;13.70
20092;BMP180;10205;49.678;6.560;2023-04-24T06:28:50;99024.00;;;13.70
20092;BMP180;10205;49.678;6.560;2023-04-24T06:31:19;99027.00;;;13.70
20092;BMP180;10205;49.678;6.560;2023-04-24T06:33:49;99014.00;;;13.70
20092;BMP180;10205;49.678;6.560;2023-04-24T06:36:16;99012.00;;;13.70
20092;BMP180;10205;49.678;6.560;2023-04-24T06:38:43;99013.00;;;13.70
20092;BMP180;10205;49.678;6.560;2023-04-24T06:41:12;99013.00;;;13.70
20092;BMP180;10205;49.678;6.560;2023-04-24T06:43:39;99011.00;;;13.60
20092;BMP180;10205;49.678;6.560;2023-04-24T06:46:07;99023.00;;;13.60
20092;BMP180;10205;49.678;6.560;2023-04-24T06:48:34;99023.00;;;13.60
20092;BMP180;10205;49.678;6.560;2023-04-24T06:51:03;99021.00;;;13.60
20092;BMP180;10205;49.678;6.560;2023-04-24T06:53:32;99027.00;;;13.60
20092;BMP180;10205;49.678;6.560;2023-04-24T06:56:00;99028.00;;;13.60
20092;BMP180;10205;49.678;6.560;2023-04-24T06:58:27;99032.00;;;13.60
20092;BMP180;10205;49.678;6.560;2023-04-24T07:01:04;99018.00;;;13.60
20092;BMP180;10205;49.678;6.560;2023-04-24T07:03:31;99033.00;;;13.60
20092;BMP180;10205;49.678;6.560;2023-04-24T07:05:59;99037.00;;;13.60
20092;BMP180;10205;49.678;6.560;2023-04-24T07:08:27;99033.00;;;13.60
20092;BMP180;10205;49.678;6.560;2023-04-24T07:11:00;99035.00;;;13.60
20092;BMP180;10205;49.678;6.560;2023-04-24T07:13:28;99039.00;;;13.60
20092;BMP180;10205;49.678;6.560;2023-04-24T07:17:21;99037.00;;;13.60
20092;BMP180;10205;49.678;6.560;2023-04-24T07:20:12;99049.00;;;13.60
20092;BMP180;10205;49.678;6.560;2023-04-24T07:22:40;99048.00;;;13.60
20092;BMP180;10205;49.678;6.560;2023-04-24T07:25:09;99041.00;;;13.60
20092;BMP180;10205;49.678;6.560;2023-04-24T07:27:36;99034.00;;;13.60
20092;BMP180;10205;49.678;6.560;2023-04-24T07:30:35;99055.00;;;13.60
20092;BMP180;10205;49.678;6.560;2023-04-24T07:33:13;99058.00;;;13.60
20092;BMP180;10205;49.678;6.560;2023-04-24T07:35:40;99062.00;;;13.60
20092;BMP180;10205;49.678;6.560;2023-04-24T07:38:07;99063.00;;;13.50
20092;BMP180;10205;49.678;6.560;2023-04-24T07:40:36;99068.00;;;13.60
20092;BMP180;10205;49.678;6.560;2023-04-24T07:43:03;99077.00;;;13.60
20092;BMP180;10205;49.678;6.560;2023-04-24T07:45:33;99075.00;;;13.60
20092;BMP180;10205;49.678;6.560;2023-04-24T07:48:03;99070.00;;;13.60
20092;BMP180;10205;49.678;6.560;2023-04-24T07:50:30;99082.00;;;13.60
20092;BMP180;10205;49.678;6.560;2023-04-24T07:52:57;99082.00;;;13.60
20092;BMP180;10205;49.678;6.560;2023-04-24T07:55:24;99091.00;;;13.60
20092;BMP180;10205;49.678;6.560;2023-04-24T07:57:53;99092.00;;;13.60
20092;BMP180;10205;49.678;6.560;2023-04-24T08:00:20;99082.00;;;13.60
20092;BMP180;10205;49.678;6.560;2023-04-24T08:02:47;99092.00;;;13.60
20092;BMP180;10205;49.678;6.560;2023-04-24T08:05:15;99086.00;;;13.60
20092;BMP180;10205;49.678;6.560;2023-04-24T08:07:42;99092.00;;;13.60
20092;BMP180;10205;49.678;6.560;2023-04-24T08:10:12;99100.00;;;13.60
20092;BMP180;10205;49.678;6.560;2023-04-24T08:12:39;99109.00;;;13.70
20092;BMP180;10205;49.678;6.560;2023-04-24T08:15:09;99109.00;;;13.70
20092;BMP180;10205;49.678;6.560;2023-04-24T08:17:37;99116.00;;;13.70
20092;BMP180;10205;49.678;6.560;2023-04-24T08:20:06;99115.00;;;13.70
20092;BMP180;10205;49.678;6.560;2023-04-24T08:22:36;99110.00;;;13.70
20092;BMP180;10205;49.678;6.560;2023-04-24T08:25:04;99105.00;;;13.70
20092;BMP180;10205;49.678;6.560;2023-04-24T08:27:31;99113.00;;;13.70
20092;BMP180;10205;49.678;6.560;2023-04-24T08:29:58;99113.00;;;13.70
20092;BMP180;10205;49.678;6.560;2023-04-24T08:32:27;99114.00;;;13.80
20092;BMP180;10205;49.678;6.560;2023-04-24T08:34:54;99120.00;;;13.80
20092;BMP180;10205;49.678;6.560;2023-04-24T08:37:22;99122.00;;;13.80
20092;BMP180;10205;49.678;6.560;2023-04-24T08:39:50;99119.00;;;13.80
20092;BMP180;10205;49.678;6.560;2023-04-24T08:42:19;99131.00;;;13.80
20092;BMP180;10205;49.678;6.560;2023-04-24T08:44:48;99133.00;;;13.90
20092;BMP180;10205;49.678;6.560;2023-04-24T08:47:16;99132.00;;;13.90
20092;BMP180;10205;49.678;6.560;2023-04-24T08:49:49;99127.00;;;13.90
20092;BMP180;10205;49.678;6.560;2023-04-24T08:52:18;99138.00;;;13.90
20092;BMP180;10205;49.678;6.560;2023-04-24T08:54:47;99145.00;;;14.00
20092;BMP180;10205;49.678;6.560;2023-04-24T08:57:15;99139.00;;;14.00
20092;BMP180;10205;49.678;6.560;2023-04-24T08:59:44;99147.00;;;14.00
20092;BMP180;10205;49.678;6.560;2023-04-24T09:02:12;99145.00;;;14.00
20092;BMP180;10205;49.678;6.560;2023-04-24T09:04:41;99141.00;;;14.00
20092;BMP180;10205;49.678;6.560;2023-04-24T09:07:14;99144.00;;;14.00
20092;BMP180;10205;49.678;6.560;2023-04-24T09:09:43;99140.00;;;14.10
20092;BMP180;10205;49.678;6.560;2023-04-24T09:12:11;99157.00;;;14.10
20092;BMP180;10205;49.678;6.560;2023-04-24T09:14:38;99162.00;;;14.10
20092;BMP180;10205;49.678;6.560;2023-04-24T09:17:08;99158.00;;;14.10
20092;BMP180;10205;49.678;6.560;2023-04-24T09:19:35;99164.00;;;14.20
20092;BMP180;10205;49.678;6.560;2023-04-24T09:22:05;99158.00;;;14.20
20092;BMP180;10205;49.678;6.560;2023-04-24T09:24:34;99155.00;;;14.20
20092;BMP180;10205;49.678;6.560;2023-04-24T09:27:02;99164.00;;;14.30
20092;BMP180;10205;49.678;6.560;2023-04-24T09:29:29;99147.00;;;14.30
20092;BMP180;10205;49.678;6.560;2023-04-24T09:31:58;99168.00;;;14.30
20092;BMP180;10205;49.678;6.560;2023-04-24T09:34:27;99185.00;;;14.30
20092;BMP180;10205;49.678;6.560;2023-04-24T09:36:54;99185.00;;;14.30
20092;BMP180;10205;49.678;6.560;2023-04-24T09:39:23;99173.00;;;14.30
20092;BMP180;10205;49.678;6.560;2023-04-24T09:41:53;99184.00;;;14.40
20092;BMP180;10205;49.678;6.560;2023-04-24T09:44:25;99181.00;;;14.40
20092;BMP180;10205;49.678;6.560;2023-04-24T09:46:55;99195.00;;;14.40
20092;BMP180;10205;49.678;6.560;2023-04-24T09:49:24;99195.00;;;14.50
20092;BMP180;10205;49.678;6.560;2023-04-24T09:51:52;99194.00;;;14.50
20092;BMP180;10205;49.678;6.560;2023-04-24T09:54:28;99204.00;;;14.50
20092;BMP180;10205;49.678;6.560;2023-04-24T09:56:59;99193.00;;;14.60
20092;BMP180;10205;49.678;6.560;2023-04-24T09:59:27;99196.00;;;14.60
20092;BMP180;10205;49.678;6.560;2023-04-24T10:01:55;99195.00;;;14.60
20092;BMP180;10205;49.678;6.560;2023-04-24T10:04:27;99207.00;;;14.60
20092;BMP180;10205;49.678;6.560;2023-04-24T10:06:56;99203.00;;;14.70
20092;BMP180;10205;49.678;6.560;2023-04-24T10:09:26;99204.00;;;14.70
20092;BMP180;10205;49.678;6.560;2023-04-24T10:11:54;99205.00;;;14.70
20092;BMP180;10205;49.678;6.560;2023-04-24T10:14:24;99213.00;;;14.80
20092;BMP180;10205;49.678;6.560;2023-04-24T10:16:54;99207.00;;;14.80
20092;BMP180;10205;49.678;6.560;2023-04-24T10:19:26;99205.00;;;14.80
20092;BMP180;10205;49.678;6.560;2023-04-24T10:21:54;99211.00;;;14.80
20092;BMP180;10205;49.678;6.560;2023-04-24T10:24:22;99212.00;;;14.90
20092;BMP180;10205;49.678;6.560;2023-04-24T10:26:50;99220.00;;;14.90
20092;BMP180;10205;49.678;6.560;2023-04-24T10:29:19;99229.00;;;14.90
20092;BMP180;10205;49.678;6.560;2023-04-24T10:31:48;99230.00;;;15.00
20092;BMP180;10205;49.678;6.560;2023-04-24T10:34:18;99238.00;;;15.00
20092;BMP180;10205;49.678;6.560;2023-04-24T10:36:52;99234.00;;;15.00
20092;BMP180;10205;49.678;6.560;2023-04-24T10:39:20;99234.00;;;15.00
20092;BMP180;10205;49.678;6.560;2023-04-24T10:41:49;99237.00;;;15.00
20092;BMP180;10205;49.678;6.560;2023-04-24T10:44:17;99248.00;;;15.10
20092;BMP180;10205;49.678;6.560;2023-04-24T10:46:46;99241.00;;;15.00
20092;BMP180;10205;49.678;6.560;2023-04-24T10:49:15;99237.00;;;15.10
20092;BMP180;10205;49.678;6.560;2023-04-24T10:51:47;99233.00;;;15.10
20092;BMP180;10205;49.678;6.560;2023-04-24T10:54:26;99248.00;;;15.10
20092;BMP180;10205;49.678;6.560;2023-04-24T10:57:27;99260.00;;;15.20
20092;BMP180;10205;49.678;6.560;2023-04-24T11:00:15;99248.00;;;15.20
20092;BMP180;10205;49.678;6.560;2023-04-24T11:02:47;99268.00;;;15.20
20092;BMP180;10205;49.678;6.560;2023-04-24T11:05:21;99258.00;;;15.20
20092;BMP180;10205;49.678;6.560;2023-04-24T11:08:10;99260.00;;;15.30
20092;BMP180;10205;49.678;6.560;2023-04-24T11:10:40;99263.00;;;15.30
20092;BMP180;10205;49.678;6.560;2023-04-24T11:13:09;99268.00;;;15.30
20092;BMP180;10205;49.678;6.560;2023-04-24T11:15:38;99261.00;;;15.30
20092;BMP180;10205;49.678;6.560;2023-04-24T11:18:14;99272.00;;;15.30
20092;BMP180;10205;49.678;6.560;2023-04-24T11:21:38;99287.00;;;15.40
20092;BMP180;10205;49.678;6.560;2023-04-24T11:25:09;99277.00;;;15.40
20092;BMP180;10205;49.678;6.560;2023-04-24T11:28:34;99278.00;;;15.30
20092;BMP180;10205;49.678;6.560;2023-04-24T11:31:44;99278.00;;;15.40
20092;BMP180;10205;49.678;6.560;2023-04-24T11:34:18;99288.00;;;15.40
20092;BMP180;10205;49.678;6.560;2023-04-24T11:36:58;99289.00;;;15.40
20092;BMP180;10205;49.678;6.560;2023-04-24T11:39:39;99296.00;;;15.50
20092;BMP180;10205;49.678;6.560;2023-04-24T11:42:54;99290.00;;;15.50
20092;BMP180;10205;49.678;6.560;2023-04-24T11:45:27;99295.00;;;15.50
20092;BMP180;10205;49.678;6.560;2023-04-24T11:47:56;99291.00;;;15.50
20092;BMP180;10205;49.678;6.560;2023-04-24T11:51:09;99284.00;;;15.50
20092;BMP180;10205;49.678;6.560;2023-04-24T11:54:48;99289.00;;;15.60
20092;BMP180;10205;49.678;6.560;2023-04-24T11:57:46;99289.00;;;15.60
20092;BMP180;10205;49.678;6.560;2023-04-24T12:00:18;99292.00;;;15.60
20092;BMP180;10205;49.678;6.560;2023-04-24T12:02:46;99293.00;;;15.60
20092;BMP180;10205;49.678;6.560;2023-04-24T12:05:20;99299.00;;;15.70
20092;BMP180;10205;49.678;6.560;2023-04-24T12:07:47;99322.00;;;15.70
20092;BMP180;10205;49.678;6.560;2023-04-24T12:10:20;99292.00;;;15.70
20092;BMP180;10205;49.678;6.560;2023-04-24T12:12:47;99299.00;;;15.80
20092;BMP180;10205;49.678;6.560;2023-04-24T12:15:17;99298.00;;;15.80
20092;BMP180;10205;49.678;6.560;2023-04-24T12:17:45;99309.00;;;15.80
20092;BMP180;10205;49.678;6.560;2023-04-24T12:20:14;99290.00;;;15.90
20092;BMP180;10205;49.678;6.560;2023-04-24T12:22:46;99311.00;;;15.90
20092;BMP180;10205;49.678;6.560;2023-04-24T12:25:16;99307.00;;;15.90
20092;BMP180;10205;49.678;6.560;2023-04-24T12:28:37;99294.00;;;15.90
20092;BMP180;10205;49.678;6.560;2023-04-24T12:31:29;99296.00;;;15.90
20092;BMP180;10205;49.678;6.560;2023-04-24T12:33:58;99313.00;;;16.00
20092;BMP180;10205;49.678;6.560;2023-04-24T12:36:25;99296.00;;;16.00
20092;BMP180;10205;49.678;6.560;2023-04-24T12:43:23;99317.00;;;16.00
20092;BMP180;10205;49.678;6.560;2023-04-24T12:45:51;99306.00;;;16.10
20092;BMP180;10205;49.678;6.560;2023-04-24T12:48:18;99318.00;;;16.10
20092;BMP180;10205;49.678;6.560;2023-04-24T12:50:57;99310.00;;;16.10
20092;BMP180;10205;49.678;6.560;2023-04-24T12:53:32;99290.00;;;16.10
20092;BMP180;10205;49.678;6.560;2023-04-24T12:56:03;99297.00;;;16.20
20092;BMP180;10205;49.678;6.560;2023-04-24T12:58:31;99297.00;;;16.20
20092;BMP180;10205;49.678;6.560;2023-04-24T13:00:59;99292.00;;;16.30
20092;BMP180;10205;49.678;6.560;2023-04-24T13:03:26;99285.00;;;16.30
20092;BMP180;10205;49.678;6.560;2023-04-24T13:05:53;99293.00;;;16.40
20092;BMP180;10205;49.678;6.560;2023-04-24T13:08:20;99284.00;;;16.40
20092;BMP180;10205;49.678;6.560;2023-04-24T13:10:48;99306.00;;;16.50
20092;BMP180;10205;49.678;6.560;2023-04-24T13:13:16;99311.00;;;16.50
20092;BMP180;10205;49.678;6.560;2023-04-24T13:15:45;99289.00;;;16.60
20092;BMP180;10205;49.678;6.560;2023-04-24T13:18:12;99294.00;;;16.60
20092;BMP180;10205;49.678;6.560;2023-04-24T13:20:39;99314.00;;;16.70
20092;BMP180;10205;49.678;6.560;2023-04-24T13:23:07;99298.00;;;16.70
20092;BMP180;10205;49.678;6.560;2023-04-24T13:25:36;99304.00;;;16.70
20092;BMP180;10205;49.678;6.560;2023-04-24T13:28:05;99300.00;;;16.80
20092;BMP180;10205;49.678;6.560;2023-04-24T13:30:32;99295.00;;;16.80
20092;BMP180;10205;49.678;6.560;2023-04-24T13:33:00;99286.00;;;16.80
20092;BMP180;10205;49.678;6.560;2023-04-24T13:35:28;99290.00;;;16.90
20092;BMP180;10205;49.678;6.560;2023-04-24T13:37:55;99291.00;;;16.90
20092;BMP180;10205;49.678;6.560;2023-04-24T13:40:22;99271.00;;;17.00
20092;BMP180;10205;49.678;6.560;2023-04-24T13:42:50;99274.00;;;17.00
20092;BMP180;10205;49.678;6.560;2023-04-24T13:45:17;99264.00;;;17.00
20092;BMP180;10205;49.678;6.560;2023-04-24T13:47:44;99275.00;;;17.10
20092;BMP180;10205;49.678;6.560;2023-04-24T13:50:13;99266.00;;;17.10
20092;BMP180;10205;49.678;6.560;2023-04-24T13:52:40;99265.00;;;17.10
20092;BMP180;10205;49.678;6.560;2023-04-24T13:55:08;99273.00;;;17.20
20092;BMP180;10205;49.678;6.560;2023-04-24T13:57:35;99261.00;;;17.20
20092;BMP180;10205;49.678;6.560;2023-04-24T14:00:04;99258.00;;;17.30
20092;BMP180;10205;49.678;6.560;2023-04-24T14:02:32;99261.00;;;17.30
20092;BMP180;10205;49.678;6.560;2023-04-24T14:04:59;99260.00;;;17.30
20092;BMP180;10205;49.678;6.560;2023-04-24T14:07:28;99256.00;;;17.40
20092;BMP180;10205;49.678;6.560;2023-04-24T14:09:56;99259.00;;;17.40
20092;BMP180;10205;49.678;6.560;2023-04-24T14:12:23;99252.00;;;17.40
20092;BMP180;10205;49.678;6.560;2023-04-24T14:14:50;99254.00;;;17.40
20092;BMP180;10205;49.678;6.560;2023-04-24T14:17:17;99258.00;;;17.40
20092;BMP180;10205;49.678;6.560;2023-04-24T14:19:44;99260.00;;;17.50
20092;BMP180;10205;49.678;6.560;2023-04-24T14:22:11;99248.00;;;17.50
20092;BMP180;10205;49.678;6.560;2023-04-24T14:24:40;99237.00;;;17.50
20092;BMP180;10205;49.678;6.560;2023-04-24T14:27:07;99244.00;;;17.50
20092;BMP180;10205;49.678;6.560;2023-04-24T14:29:34;99251.00;;;17.60
20092;BMP180;10205;49.678;6.560;2023-04-24T14:32:01;99252.00;;;17.60